sensor_id;sensor_type;location;lat;lon;timestamp;pressure;altitude;pressure_sealevel;temperature;humidity
74552;BME280;63025;55.472;38.432;2023-04-24T00:00:03;100249.69;;;5.79;64.40
74552;BME280;63025;55.472;38.432;2023-04-24T00:02:35;100254.34;;;5.77;64.64
74552;BME280;63025;55.472;38.432;2023-04-24T00:05:04;100248.00;;;5.78;64.86
74552;BME280;63025;55.472;38.432;2023-04-24T00:07:32;100246.34;;;5.77;64.83
74552;BME280;63025;55.472;38.432;2023-04-24T00:09:57;100247.03;;;5.71;64.85
74552;BME280;63025;55.472;38.432;2023-04-24T00:12:24;100242.06;;;5.68;64.64
74552;BME280;63025;55.472;38.432;2023-04-24T00:14:50;100251.06;;;5.67;64.57
74552;BME280;63025;55.472;38.432;2023-04-24T00:17:16;100243.22;;;5.66;64.74
74552;BME280;63025;55.472;38.432;2023-04-24T00:19:46;100247.72;;;5.65;64.97
74552;BME280;63025;55.472;38.432;2023-04-24T00:22:12;100250.38;;;5.65;65.01
74552;BME280;63025;55.472;38.432;2023-04-24T00:24:39;100246.41;;;5.61;64.90
74552;BME280;63025;55.472;38.432;2023-04-24T00:27:05;100251.44;;;5.56;65.63
74552;BME280;63025;55.472;38.432;2023-04-24T00:29:31;100242.94;;;5.52;65.10
74552;BME280;63025;55.472;38.432;2023-04-24T00:31:57;100250.09;;;5.52;65.43
74552;BME280;63025;55.472;38.432;2023-04-24T00:34:23;100252.94;;;5.50;65.29
74552;BME280;63025;55.472;38.432;2023-04-24T00:36:49;100250.47;;;5.49;65.77
74552;BME280;63025;55.472;38.432;2023-04-24T00:39:21;100258.47;;;5.49;65.50
74552;BME280;63025;55.472;38.432;2023-04-24T00:41:49;100248.97;;;5.46;65.68
74552;BME280;63025;55.472;38.432;2023-04-24T00:44:16;100249.13;;;5.45;65.48
74552;BME280;63025;55.472;38.432;2023-04-24T00:46:42;100248.47;;;5.43;65.60
74552;BME280;63025;55.472;38.432;2023-04-24T00:49:08;100244.31;;;5.40;65.70
74552;BME280;63025;55.472;38.432;2023-04-24T00:51:34;100256.00;;;5.39;65.98
74552;BME280;63025;55.472;38.432;2023-04-24T00:54:01;100257.81;;;5.39;65.50
74552;BME280;63025;55.472;38.432;2023-04-24T00:56:28;100246.50;;;5.37;65.39
74552;BME280;63025;55.472;38.432;2023-04-24T00:58:53;100256.50;;;5.35;65.64
74552;BME280;63025;55.472;38.432;2023-04-24T01:01:20;100260.16;;;5.34;65.86
74552;BME280;63025;55.472;38.432;2023-04-24T01:03:47;100252.31;;;5.32;65.88
74552;BME280;63025;55.472;38.432;2023-04-24T01:06:15;100253.50;;;5.30;66.04
74552;BME280;63025;55.472;38.432;2023-04-24T01:08:41;100255.84;;;5.25;65.96
74552;BME280;63025;55.472;38.432;2023-04-24T01:11:07;100252.84;;;5.20;66.07
74552;BME280;63025;55.472;38.432;2023-04-24T01:13:33;100250.88;;;5.13;65.84
74552;BME280;63025;55.472;38.432;2023-04-24T01:15:59;100244.03;;;5.11;66.13
74552;BME280;63025;55.472;38.432;2023-04-24T01:18:27;100244.56;;;5.06;65.56
74552;BME280;63025;55.472;38.432;2023-04-24T01:20:56;100249.38;;;5.03;65.83
74552;BME280;63025;55.472;38.432;2023-04-24T01:23:23;100248.03;;;4.99;65.96
74552;BME280;63025;55.472;38.432;2023-04-24T01:25:51;100245.91;;;4.94;65.59
74552;BME280;63025;55.472;38.432;2023-04-24T01:28:18;100244.41;;;4.92;65.72
74552;BME280;63025;55.472;38.432;2023-04-24T01:30:44;100245.25;;;4.92;66.41
74552;BME280;63025;55.472;38.432;2023-04-24T01:33:10;100236.94;;;4.87;66.41
74552;BME280;63025;55.472;38.432;2023-04-24T01:35:37;100243.91;;;4.88;66.56
74552;BME280;63025;55.472;38.432;2023-04-24T01:38:03;100245.75;;;4.88;66.90
74552;BME280;63025;55.472;38.432;2023-04-24T01:40:30;100239.25;;;4.82;67.42
74552;BME280;63025;55.472;38.432;2023-04-24T01:42:58;100243.75;;;4.82;67.35
74552;BME280;63025;55.472;38.432;2023-04-24T01:45:24;100246.25;;;4.83;67.11
74552;BME280;63025;55.472;38.432;2023-04-24T01:47:50;100243.06;;;4.79;67.11
74552;BME280;63025;55.472;38.432;2023-04-24T01:50:17;100245.09;;;4.77;67.20
74552;BME280;63025;55.472;38.432;2023-04-24T01:52:44;100230.75;;;4.78;67.35
74552;BME280;63025;55.472;38.432;2023-04-24T01:55:10;100240.56;;;4.78;67.18
74552;BME280;63025;55.472;38.432;2023-04-24T01:57:38;100231.28;;;4.74;67.76
74552;BME280;63025;55.472;38.432;2023-04-24T02:00:04;100239.44;;;4.72;67.65
74552;BME280;63025;55.472;38.432;2023-04-24T02:02:40;100231.59;;;4.71;67.56
74552;BME280;63025;55.472;38.432;2023-04-24T02:05:07;100250.06;;;4.72;67.25
74552;BME280;63025;55.472;38.432;2023-04-24T02:07:36;100250.06;;;4.72;68.08
74552;BME280;63025;55.472;38.432;2023-04-24T02:10:03;100250.91;;;4.73;67.39
74552;BME280;63025;55.472;38.432;2023-04-24T02:12:32;100252.91;;;4.71;67.78
74552;BME280;63025;55.472;38.432;2023-04-24T02:14:59;100251.91;;;4.72;67.46
74552;BME280;63025;55.472;38.432;2023-04-24T02:17:26;100249.25;;;4.72;67.94
74552;BME280;63025;55.472;38.432;2023-04-24T02:19:52;100245.59;;;4.73;67.31
74552;BME280;63025;55.472;38.432;2023-04-24T02:22:18;100252.56;;;4.74;67.33
74552;BME280;63025;55.472;38.432;2023-04-24T02:24:43;100250.59;;;4.76;67.63
74552;BME280;63025;55.472;38.432;2023-04-24T02:27:10;100246.72;;;4.78;67.74
74552;BME280;63025;55.472;38.432;2023-04-24T02:29:37;100240.91;;;4.83;67.54
74552;BME280;63025;55.472;38.432;2023-04-24T02:32:03;100249.59;;;4.85;67.78
74552;BME280;63025;55.472;38.432;2023-04-24T02:34:29;100246.56;;;4.88;68.07
74552;BME280;63025;55.472;38.432;2023-04-24T02:36:55;100251.41;;;4.93;67.66
74552;BME280;63025;55.472;38.432;2023-04-24T02:39:21;100257.22;;;4.96;67.94
74552;BME280;63025;55.472;38.432;2023-04-24T02:41:46;100261.88;;;5.02;67.61
74552;BME280;63025;55.472;38.432;2023-04-24T02:44:12;100264.03;;;5.07;67.59
74552;BME280;63025;55.472;38.432;2023-04-24T02:46:39;100252.56;;;5.06;67.25
74552;BME280;63025;55.472;38.432;2023-04-24T02:49:06;100258.84;;;5.13;67.57
74552;BME280;63025;55.472;38.432;2023-04-24T02:51:32;100266.00;;;5.21;67.76
74552;BME280;63025;55.472;38.432;2023-04-24T02:53:58;100264.50;;;5.27;67.58
74552;BME280;63025;55.472;38.432;2023-04-24T02:56:24;100264.66;;;5.33;67.81
74552;BME280;63025;55.472;38.432;2023-04-24T02:58:50;100276.28;;;5.40;67.39
74552;BME280;63025;55.472;38.432;2023-04-24T03:01:16;100277.44;;;5.46;67.64
74552;BME280;63025;55.472;38.432;2023-04-24T03:03:43;100289.44;;;5.50;67.28
74552;BME280;63025;55.472;38.432;2023-04-24T03:06:09;100281.06;;;5.61;67.14
74552;BME280;63025;55.472;38.432;2023-04-24T03:08:35;100291.06;;;5.67;67.22
74552;BME280;63025;55.472;38.432;2023-04-24T03:11:01;100291.00;;;5.75;67.41
74552;BME280;63025;55.472;38.432;2023-04-24T03:13:27;100291.97;;;5.82;67.64
74552;BME280;63025;55.472;38.432;2023-04-24T03:15:52;100297.63;;;5.87;67.22
74552;BME280;63025;55.472;38.432;2023-04-24T03:18:20;100284.97;;;5.98;67.21
74552;BME280;63025;55.472;38.432;2023-04-24T03:20:48;100297.91;;;6.09;67.19
74552;BME280;63025;55.472;38.432;2023-04-24T03:23:14;100286.19;;;6.18;66.95
74552;BME280;63025;55.472;38.432;2023-04-24T03:25:41;100293.75;;;6.37;67.08
74552;BME280;63025;55.472;38.432;2023-04-24T03:28:10;100291.69;;;6.47;67.02
74552;BME280;63025;55.472;38.432;2023-04-24T03:30:42;100298.09;;;6.61;66.79
74552;BME280;63025;55.472;38.432;2023-04-24T03:33:09;100293.13;;;6.81;66.66
74552;BME280;63025;55.472;38.432;2023-04-24T03:35:40;100288.28;;;6.99;66.25
74552;BME280;63025;55.472;38.432;2023-04-24T03:38:09;100296.63;;;7.19;65.71
74552;BME280;63025;55.472;38.432;2023-04-24T03:40:54;100299.59;;;7.38;65.27
74552;BME280;63025;55.472;38.432;2023-04-24T03:43:40;100298.06;;;7.59;64.79
74552;BME280;63025;55.472;38.432;2023-04-24T03:46:06;100309.06;;;7.79;64.60
74552;BME280;63025;55.472;38.432;2023-04-24T03:48:38;100298.97;;;7.95;64.04
74552;BME280;63025;55.472;38.432;2023-04-24T03:51:05;100299.22;;;8.15;63.63
74552;BME280;63025;55.472;38.432;2023-04-24T03:53:33;100311.56;;;8.31;63.32
74552;BME280;63025;55.472;38.432;2023-04-24T03:55:59;100300.28;;;8.50;62.38
74552;BME280;63025;55.472;38.432;2023-04-24T03:58:25;100304.00;;;8.70;62.27
74552;BME280;63025;55.472;38.432;2023-04-24T04:00:54;100308.72;;;8.90;61.20
74552;BME280;63025;55.472;38.432;2023-04-24T04:03:41;100308.72;;;9.11;59.76
74552;BME280;63025;55.472;38.432;2023-04-24T04:06:07;100319.41;;;9.32;58.24
74552;BME280;63025;55.472;38.432;2023-04-24T04:08:33;100309.59;;;9.46;57.51
74552;BME280;63025;55.472;38.432;2023-04-24T04:11:00;100317.38;;;9.69;56.56
74552;BME280;63025;55.472;38.432;2023-04-24T04:13:26;100314.41;;;9.85;55.30
74552;BME280;63025;55.472;38.432;2023-04-24T04:15:52;100316.34;;;10.04;54.67
74552;BME280;63025;55.472;38.432;2023-04-24T04:18:18;100320.56;;;10.20;54.00
74552;BME280;63025;55.472;38.432;2023-04-24T04:20:44;100319.63;;;10.34;53.40
74552;BME280;63025;55.472;38.432;2023-04-24T04:23:12;100323.38;;;10.53;53.19
74552;BME280;63025;55.472;38.432;2023-04-24T04:25:54;100326.75;;;10.68;52.34
74552;BME280;63025;55.472;38.432;2023-04-24T04:28:24;100330.91;;;10.84;51.26
74552;BME280;63025;55.472;38.432;2023-04-24T04:30:50;100337.16;;;10.97;51.18
74552;BME280;63025;55.472;38.432;2023-04-24T04:33:20;100332.19;;;11.08;50.31
74552;BME280;63025;55.472;38.432;2023-04-24T04:35:47;100336.75;;;11.20;50.38
74552;BME280;63025;55.472;38.432;2023-04-24T04:38:20;100342.56;;;11.30;49.44
74552;BME280;63025;55.472;38.432;2023-04-24T04:41:15;100341.94;;;11.42;49.40
74552;BME280;63025;55.472;38.432;2023-04-24T04:43:43;100342.75;;;11.55;49.06
74552;BME280;63025;55.472;38.432;2023-04-24T04:46:10;100340.66;;;11.70;49.33
74552;BME280;63025;55.472;38.432;2023-04-24T04:49:09;100331.97;;;11.88;49.12
74552;BME280;63025;55.472;38.432;2023-04-24T04:51:37;100335.84;;;12.05;48.65
74552;BME280;63025;55.472;38.432;2023-04-24T04:54:03;100342.22;;;12.24;48.15
74552;BME280;63025;55.472;38.432;2023-04-24T04:56:29;100340.28;;;12.38;48.09
74552;BME280;63025;55.472;38.432;2023-04-24T04:58:58;100327.78;;;12.50;48.13
74552;BME280;63025;55.472;38.432;2023-04-24T05:01:25;100340.13;;;12.71;47.67
74552;BME280;63025;55.472;38.432;2023-04-24T05:03:54;100335.03;;;12.87;46.95
74552;BME280;63025;55.472;38.432;2023-04-24T05:06:20;100337.22;;;13.04;46.37
74552;BME280;63025;55.472;38.432;2023-04-24T05:08:46;100342.94;;;13.20;46.29
74552;BME280;63025;55.472;38.432;2023-04-24T05:11:24;100333.84;;;13.40;45.78
74552;BME280;63025;55.472;38.432;2023-04-24T05:13:51;100333.94;;;13.58;45.30
74552;BME280;63025;55.472;38.432;2023-04-24T05:16:22;100334.84;;;13.70;44.85
74552;BME280;63025;55.472;38.432;2023-04-24T05:18:50;100341.75;;;13.84;44.09
74552;BME280;63025;55.472;38.432;2023-04-24T05:21:19;100341.63;;;13.98;43.49
74552;BME280;63025;55.472;38.432;2023-04-24T05:23:49;100337.97;;;14.10;42.72
74552;BME280;63025;55.472;38.432;2023-04-24T05:26:23;100335.91;;;14.24;43.03
74552;BME280;63025;55.472;38.432;2023-04-24T05:28:49;100334.28;;;14.41;43.04
74552;BME280;63025;55.472;38.432;2023-04-24T05:31:16;100336.34;;;14.57;43.41
74552;BME280;63025;55.472;38.432;2023-04-24T05:33:43;100334.53;;;14.69;42.47
74552;BME280;63025;55.472;38.432;2023-04-24T05:36:10;100339.78;;;14.83;42.01
74552;BME280;63025;55.472;38.432;2023-04-24T05:38:35;100337.94;;;14.95;42.07
74552;BME280;63025;55.472;38.432;2023-04-24T05:41:01;100340.66;;;15.06;41.25
74552;BME280;63025;55.472;38.432;2023-04-24T05:43:27;100333.38;;;15.19;41.30
74552;BME280;63025;55.472;38.432;2023-04-24T05:45:53;100337.31;;;15.34;41.33
74552;BME280;63025;55.472;38.432;2023-04-24T05:48:19;100333.31;;;15.49;41.51
74552;BME280;63025;55.472;38.432;2023-04-24T05:50:45;100335.97;;;15.67;40.94
74552;BME280;63025;55.472;38.432;2023-04-24T05:53:11;100337.81;;;15.78;40.91
74552;BME280;63025;55.472;38.432;2023-04-24T05:55:37;100329.69;;;15.90;40.44
74552;BME280;63025;55.472;38.432;2023-04-24T05:58:03;100338.63;;;16.02;40.63
74552;BME280;63025;55.472;38.432;2023-04-24T06:00:29;100333.78;;;16.15;40.55
74552;BME280;63025;55.472;38.432;2023-04-24T06:03:02;100330.81;;;16.29;40.20
74552;BME280;63025;55.472;38.432;2023-04-24T06:05:29;100338.81;;;16.35;39.24
74552;BME280;63025;55.472;38.432;2023-04-24T06:07:56;100336.78;;;16.42;39.13
74552;BME280;63025;55.472;38.432;2023-04-24T06:10:25;100329.19;;;16.56;39.21
74552;BME280;63025;55.472;38.432;2023-04-24T06:12:51;100328.19;;;16.74;38.73
74552;BME280;63025;55.472;38.432;2023-04-24T06:15:17;100334.25;;;16.93;37.94
74552;BME280;63025;55.472;38.432;2023-04-24T06:17:52;100330.41;;;17.05;36.56
74552;BME280;63025;55.472;38.432;2023-04-24T06:20:20;100321.94;;;17.18;35.70
74552;BME280;63025;55.472;38.432;2023-04-24T06:22:46;100329.63;;;17.21;33.68
74552;BME280;63025;55.472;38.432;2023-04-24T06:25:11;100330.28;;;17.29;33.27
74552;BME280;63025;55.472;38.432;2023-04-24T06:27:37;100334.22;;;17.38;32.85
74552;BME280;63025;55.472;38.432;2023-04-24T06:30:03;100334.63;;;17.46;32.97
74552;BME280;63025;55.472;38.432;2023-04-24T06:32:31;100330.50;;;17.60;33.44
74552;BME280;63025;55.472;38.432;2023-04-24T06:34:59;100331.03;;;17.74;33.11
74552;BME280;63025;55.472;38.432;2023-04-24T06:37:25;100332.63;;;17.92;32.61
74552;BME280;63025;55.472;38.432;2023-04-24T06:39:51;100326.03;;;18.05;32.23
74552;BME280;63025;55.472;38.432;2023-04-24T06:42:17;100329.94;;;18.14;31.28
74552;BME280;63025;55.472;38.432;2023-04-24T06:44:43;100327.59;;;18.22;31.32
74552;BME280;63025;55.472;38.432;2023-04-24T06:47:10;100327.78;;;18.38;31.10
74552;BME280;63025;55.472;38.432;2023-04-24T06:49:38;100331.19;;;18.50;31.71
74552;BME280;63025;55.472;38.432;2023-04-24T06:52:04;100338.44;;;18.61;31.10
74552;BME280;63025;55.472;38.432;2023-04-24T06:54:31;100335.63;;;18.56;29.59
74552;BME280;63025;55.472;38.432;2023-04-24T06:56:56;100333.63;;;18.68;30.07
74552;BME280;63025;55.472;38.432;2023-04-24T06:59:26;100332.00;;;18.67;28.84
74552;BME280;63025;55.472;38.432;2023-04-24T07:01:53;100327.56;;;18.61;28.56
74552;BME280;63025;55.472;38.432;2023-04-24T07:04:19;100323.81;;;18.67;28.82
74552;BME280;63025;55.472;38.432;2023-04-24T07:06:45;100328.59;;;18.82;29.56
74552;BME280;63025;55.472;38.432;2023-04-24T07:09:15;100333.28;;;18.86;28.75
74552;BME280;63025;55.472;38.432;2023-04-24T07:11:45;100333.31;;;18.91;28.34
74552;BME280;63025;55.472;38.432;2023-04-24T07:14:11;100335.03;;;18.97;28.26
74552;BME280;63025;55.472;38.432;2023-04-24T07:16:38;100330.19;;;19.04;28.14
74552;BME280;63025;55.472;38.432;2023-04-24T07:19:04;100335.72;;;19.15;27.94
74552;BME280;63025;55.472;38.432;2023-04-24T07:21:30;100334.44;;;19.22;27.76
74552;BME280;63025;55.472;38.432;2023-04-24T07:23:58;100344.66;;;19.37;28.31
74552;BME280;63025;55.472;38.432;2023-04-24T07:26:25;100331.09;;;19.47;27.62
74552;BME280;63025;55.472;38.432;2023-04-24T07:28:51;100338.25;;;19.53;27.15
74552;BME280;63025;55.472;38.432;2023-04-24T07:31:17;100331.47;;;19.56;26.97
74552;BME280;63025;55.472;38.432;2023-04-24T07:33:42;100348.72;;;19.61;26.88
74552;BME280;63025;55.472;38.432;2023-04-24T07:36:08;100332.84;;;19.58;26.38
74552;BME280;63025;55.472;38.432;2023-04-24T07:38:34;100334.00;;;19.67;26.70
74552;BME280;63025;55.472;38.432;2023-04-24T07:41:00;100326.41;;;19.69;26.55
74552;BME280;63025;55.472;38.432;2023-04-24T07:43:25;100330.50;;;19.72;26.58
74552;BME280;63025;55.472;38.432;2023-04-24T07:45:51;100324.28;;;19.82;26.00
74552;BME280;63025;55.472;38.432;2023-04-24T07:48:17;100327.53;;;19.78;26.33
74552;BME280;63025;55.472;38.432;2023-04-24T07:50:44;100324.81;;;19.78;26.13
74552;BME280;63025;55.472;38.432;2023-04-24T07:53:10;100320.19;;;19.84;26.55
74552;BME280;63025;55.472;38.432;2023-04-24T07:55:36;100330.91;;;19.96;25.74
74552;BME280;63025;55.472;38.432;2023-04-24T07:58:02;100323.28;;;19.98;25.25
74552;BME280;63025;55.472;38.432;2023-04-24T08:00:28;100322.34;;;20.24;24.76
74552;BME280;63025;55.472;38.432;2023-04-24T08:02:54;100307.50;;;20.62;25.05
74552;BME280;63025;55.472;38.432;2023-04-24T08:05:20;100313.59;;;21.05;24.22
74552;BME280;63025;55.472;38.432;2023-04-24T08:08:01;100311.69;;;21.41;23.88
74552;BME280;63025;55.472;38.432;2023-04-24T08:10:27;100313.84;;;21.79;23.59
74552;BME280;63025;55.472;38.432;2023-04-24T08:12:52;100302.22;;;22.28;23.01
74552;BME280;63025;55.472;38.432;2023-04-24T08:15:18;100302.06;;;22.58;22.51
74552;BME280;63025;55.472;38.432;2023-04-24T08:17:44;100297.31;;;22.79;21.98
74552;BME280;63025;55.472;38.432;2023-04-24T08:20:11;100304.19;;;23.78;21.49
74552;BME280;63025;55.472;38.432;2023-04-24T08:22:40;100308.44;;;24.19;20.34
74552;BME280;63025;55.472;38.432;2023-04-24T08:25:07;100316.25;;;24.73;20.04
74552;BME280;63025;55.472;38.432;2023-04-24T08:27:33;100309.88;;;25.47;18.99
74552;BME280;63025;55.472;38.432;2023-04-24T08:29:58;100313.28;;;26.31;18.36
74552;BME280;63025;55.472;38.432;2023-04-24T08:32:26;100299.06;;;27.01;18.00
74552;BME280;63025;55.472;38.432;2023-04-24T08:34:55;100288.00;;;27.68;17.24
74552;BME280;63025;55.472;38.432;2023-04-24T08:37:22;100294.75;;;28.24;16.36
74552;BME280;63025;55.472;38.432;2023-04-24T08:39:49;100297.75;;;28.54;16.15
74552;BME280;63025;55.472;38.432;2023-04-24T08:42:17;100298.41;;;28.68;15.55
74552;BME280;63025;55.472;38.432;2023-04-24T08:44:43;100280.34;;;28.53;15.54
74552;BME280;63025;55.472;38.432;2023-04-24T08:47:10;100282.50;;;28.99;15.28
74552;BME280;63025;55.472;38.432;2023-04-24T08:49:36;100280.72;;;29.84;15.12
74552;BME280;63025;55.472;38.432;2023-04-24T08:52:04;100275.72;;;30.87;14.61
74552;BME280;63025;55.472;38.432;2023-04-24T08:54:31;100281.97;;;31.37;14.03
74552;BME280;63025;55.472;38.432;2023-04-24T08:57:01;100272.38;;;32.04;13.30
74552;BME280;63025;55.472;38.432;2023-04-24T08:59:32;100270.09;;;32.06;13.42
74552;BME280;63025;55.472;38.432;2023-04-24T09:01:59;100264.94;;;32.57;12.70
74552;BME280;63025;55.472;38.432;2023-04-24T09:04:25;100276.72;;;32.91;12.22
74552;BME280;63025;55.472;38.432;2023-04-24T09:06:57;100264.97;;;32.45;12.32
74552;BME280;63025;55.472;38.432;2023-04-24T09:09:24;100276.75;;;32.66;11.77
74552;BME280;63025;55.472;38.432;2023-04-24T09:11:52;100265.63;;;32.78;11.75
74552;BME280;63025;55.472;38.432;2023-04-24T09:14:20;100255.38;;;33.38;12.52
74552;BME280;63025;55.472;38.432;2023-04-24T09:16:46;100249.03;;;33.69;12.11
74552;BME280;63025;55.472;38.432;2023-04-24T09:19:13;100256.31;;;33.58;11.76
74552;BME280;63025;55.472;38.432;2023-04-24T09:21:39;100261.81;;;33.70;11.69
74552;BME280;63025;55.472;38.432;2023-04-24T09:24:08;100256.44;;;33.34;11.67
74552;BME280;63025;55.472;38.432;2023-04-24T09:26:39;100249.94;;;33.89;11.45
74552;BME280;63025;55.472;38.432;2023-04-24T09:29:05;100249.53;;;34.38;11.02
74552;BME280;63025;55.472;38.432;2023-04-24T09:31:31;100256.84;;;33.95;11.58
74552;BME280;63025;55.472;38.432;2023-04-24T09:36:27;100247.56;;;34.57;11.38
74552;BME280;63025;55.472;38.432;2023-04-24T09:38:58;100256.13;;;34.30;11.21
74552;BME280;63025;55.472;38.432;2023-04-24T09:41:24;100239.69;;;34.98;11.49
74552;BME280;63025;55.472;38.432;2023-04-24T09:43:53;100235.91;;;35.10;11.17
74552;BME280;63025;55.472;38.432;2023-04-24T09:46:20;100234.31;;;35.51;10.91
74552;BME280;63025;55.472;38.432;2023-04-24T09:48:47;100234.91;;;36.35;10.55
74552;BME280;63025;55.472;38.432;2023-04-24T09:51:13;100237.78;;;36.69;10.29
74552;BME280;63025;55.472;38.432;2023-04-24T09:53:45;100232.75;;;35.11;10.35
74552;BME280;63025;55.472;38.432;2023-04-24T09:56:14;100232.63;;;34.31;10.73
74552;BME280;63025;55.472;38.432;2023-04-24T09:58:40;100233.88;;;34.33;10.93
74552;BME280;63025;55.472;38.432;2023-04-24T10:01:05;100204.38;;;34.90;11.07
74552;BME280;63025;55.472;38.432;2023-04-24T10:03:32;100229.84;;;34.85;11.50
74552;BME280;63025;55.472;38.432;2023-04-24T10:06:00;100225.69;;;34.24;11.22
74552;BME280;63025;55.472;38.432;2023-04-24T10:08:26;100214.59;;;33.93;11.10
74552;BME280;63025;55.472;38.432;2023-04-24T10:10:52;100224.84;;;34.75;11.30
74552;BME280;63025;55.472;38.432;2023-04-24T10:13:18;100219.47;;;34.85;10.21
74552;BME280;63025;55.472;38.432;2023-04-24T10:15:46;100211.06;;;35.05;10.80
74552;BME280;63025;55.472;38.432;2023-04-24T10:18:12;100206.59;;;35.65;10.38
74552;BME280;63025;55.472;38.432;2023-04-24T10:20:39;100214.97;;;36.40;10.01
74552;BME280;63025;55.472;38.432;2023-04-24T10:23:05;100216.59;;;36.42;10.29
74552;BME280;63025;55.472;38.432;2023-04-24T10:25:34;100205.72;;;35.61;10.11
74552;BME280;63025;55.472;38.432;2023-04-24T10:28:01;100202.50;;;35.36;10.46
74552;BME280;63025;55.472;38.432;2023-04-24T10:30:32;100194.03;;;35.78;10.23
74552;BME280;63025;55.472;38.432;2023-04-24T10:33:03;100193.59;;;36.59;10.21
74552;BME280;63025;55.472;38.432;2023-04-24T10:35:42;100193.56;;;35.99;10.13
74552;BME280;63025;55.472;38.432;2023-04-24T10:38:13;100194.53;;;33.72;10.36
74552;BME280;63025;55.472;38.432;2023-04-24T10:40:39;100196.38;;;32.25;11.89
74552;BME280;63025;55.472;38.432;2023-04-24T10:43:06;100199.13;;;32.77;11.34
74552;BME280;63025;55.472;38.432;2023-04-24T10:45:34;100191.88;;;34.10;11.56
74552;BME280;63025;55.472;38.432;2023-04-24T10:48:04;100183.38;;;34.77;10.75
74552;BME280;63025;55.472;38.432;2023-04-24T10:50:53;100184.75;;;35.06;10.39
74552;BME280;63025;55.472;38.432;2023-04-24T10:53:21;100173.00;;;33.25;11.52
74552;BME280;63025;55.472;38.432;2023-04-24T10:55:50;100184.34;;;31.96;11.57
74552;BME280;63025;55.472;38.432;2023-04-24T10:58:22;100179.53;;;32.73;11.80
74552;BME280;63025;55.472;38.432;2023-04-24T11:00:59;100177.25;;;33.50;11.62
74552;BME280;63025;55.472;38.432;2023-04-24T11:03:31;100166.88;;;33.20;11.11
74552;BME280;63025;55.472;38.432;2023-04-24T11:06:07;100162.06;;;33.79;11.35
74552;BME280;63025;55.472;38.432;2023-04-24T11:08:43;100163.28;;;34.33;11.24
74552;BME280;63025;55.472;38.432;2023-04-24T11:11:16;100156.41;;;34.11;11.17
74552;BME280;63025;55.472;38.432;2023-04-24T11:16:54;100163.16;;;34.26;10.55
74552;BME280;63025;55.472;38.432;2023-04-24T11:22:13;100147.84;;;34.58;10.68
74552;BME280;63025;55.472;38.432;2023-04-24T11:37:32;100143.75;;;34.52;11.15
74552;BME280;63025;55.472;38.432;2023-04-24T11:39:58;100133.13;;;34.77;10.99
74552;BME280;63025;55.472;38.432;2023-04-24T11:42:24;100130.03;;;33.58;11.39
74552;BME280;63025;55.472;38.432;2023-04-24T11:44:55;100130.22;;;32.18;12.21
74552;BME280;63025;55.472;38.432;2023-04-24T11:47:33;100123.50;;;31.22;12.77
74552;BME280;63025;55.472;38.432;2023-04-24T11:50:00;100120.00;;;30.47;13.39
74552;BME280;63025;55.472;38.432;2023-04-24T11:52:26;100117.56;;;30.04;13.85
74552;BME280;63025;55.472;38.432;2023-04-24T11:54:52;100107.22;;;29.63;14.19
74552;BME280;63025;55.472;38.432;2023-04-24T11:57:19;100114.06;;;31.02;13.87
74552;BME280;63025;55.472;38.432;2023-04-24T11:59:46;100101.44;;;33.13;13.18
74552;BME280;63025;55.472;38.432;2023-04-24T12:02:25;100103.34;;;34.46;12.26
74552;BME280;63025;55.472;38.432;2023-04-24T12:04:53;100101.16;;;35.43;10.86
74552;BME280;63025;55.472;38.432;2023-04-24T12:07:19;100103.09;;;34.74;10.64
74552;BME280;63025;55.472;38.432;2023-04-24T12:09:55;100100.44;;;32.62;11.84
74552;BME280;63025;55.472;38.432;2023-04-24T12:12:24;100106.94;;;31.25;12.05
74552;BME280;63025;55.472;38.432;2023-04-24T12:14:55;100098.63;;;31.62;12.64
74552;BME280;63025;55.472;38.432;2023-04-24T12:17:30;100093.78;;;32.11;12.16
74552;BME280;63025;55.472;38.432;2023-04-24T12:20:06;100106.38;;;32.33;12.31
74552;BME280;63025;55.472;38.432;2023-04-24T12:22:52;100089.69;;;33.51;11.47
74552;BME280;63025;55.472;38.432;2023-04-24T12:25:24;100083.19;;;34.17;11.38
74552;BME280;63025;55.472;38.432;2023-04-24T12:28:13;100090.50;;;33.87;11.56
74552;BME280;63025;55.472;38.432;2023-04-24T12:30:47;100088.50;;;32.18;11.57
74552;BME280;63025;55.472;38.432;2023-04-24T12:33:18;100093.78;;;30.23;12.92
74552;BME280;63025;55.472;38.432;2023-04-24T12:35:44;100086.88;;;28.57;13.91
74552;BME280;63025;55.472;38.432;2023-04-24T12:38:15;100083.50;;;27.91;14.88
74552;BME280;63025;55.472;38.432;2023-04-24T12:40:42;100083.50;;;27.91;14.99
74552;BME280;63025;55.472;38.432;2023-04-24T12:43:16;100077.81;;;27.30;15.70
74552;BME280;63025;55.472;38.432;2023-04-24T12:45:41;100074.94;;;27.04;15.46
74552;BME280;63025;55.472;38.432;2023-04-24T12:48:07;100073.22;;;26.86;15.48
74552;BME280;63025;55.472;38.432;2023-04-24T12:50:33;100062.78;;;26.52;16.17
74552;BME280;63025;55.472;38.432;2023-04-24T12:52:59;100062.19;;;25.97;16.37
74552;BME280;63025;55.472;38.432;2023-04-24T12:55:25;100066.25;;;25.64;16.60
74552;BME280;63025;55.472;38.432;2023-04-24T12:57:51;100060.53;;;25.96;16.69
74552;BME280;63025;55.472;38.432;2023-04-24T13:00:18;100060.88;;;27.23;16.19
74552;BME280;63025;55.472;38.432;2023-04-24T13:02:44;100063.16;;;28.04;15.39
74552;BME280;63025;55.472;38.432;2023-04-24T13:05:10;100063.25;;;28.94;14.95
74552;BME280;63025;55.472;38.432;2023-04-24T13:07:37;100055.19;;;29.09;14.28